Terminal Aerodrome Forecast
Issued by NWS

Home | Current Version | Previous Version | Text Only | Print | Product List | Glossary On
Versions: 1 2 3 4 5 6 7 8 9 10 11 12 13 14 15 16
127
FTUS41 KBTV 241132
TAFMPV
TAF
KMPV 241132Z 2412/2512 VRB03KT P6SM VCSH SCT020 OVC035
      TEMPO 2412/2415 4SM -RA BR OVC020
     FM241500 29007KT P6SM BKN040
     FM242200 25006KT P6SM SCT040
     FM250600 00000KT 1SM BR OVC007=

USA.gov is the U.S. government's official web portal to all federal, state and local government web resources and services.